岡山グライダークラブ活動状況掲示板

岡山グライダークラブ
岡山市浦安南町639-1 岡南飛行場
 使用機:シャイベ式 SF25C型 ファルケ   JA2330
      ヴァレンティン式17E型 タイフーン  JA2342
 練習日:毎日曜日  クラブルーム:電話 086-265-1810
この掲示板は岡山グライダークラブの活動状況をお知らせする掲示板です。
!!!この掲示板は投稿規制をしています。!!!
クラブ関連各種情報は 岡山グライダークラブクラブルーム      を       .
  ブリーフイング情報は  岡山グライダークラブブリーフィングルーム  をご覧下さい。 .
※写真はクリックすると拡大して見ることが出来ます。
岡南飛行場へのアクセス等は 岡南飛行場管理事務所 をご覧ください。
クラブの ホームページ ができました。

!!!緊急事態宣言、まん延防止等重点措置の解除に伴い、見学者等の受入を再開します。なお、来所の際には、こちらを順守願います。

 
09月26日
by OGC at 2021/9/26(日) 20:03:33 No.20210926195821  削除コメント
640 x 480 x 134,998バイト
No.1

09月26日
本日の参加者
  会員      15名
  その他      0名


@本日の様子






METAR
RJBK 260000Z 01003KT 25KM FEW015CU SCT025CU BKN/// 23/19 Q1019 A3010
RJOB 260000Z 05004KT 010V090 9999 FEW010 SCT015 BKN/// 22/18 Q1020
RJOT 260000Z VRB01KT 9999 FEW007 SCT170 BKN/// 22/19 Q1019
RJOA 260000Z 07005KT 030V090 9999 FEW020 SCT160 BKN/// 22/19 Q1020
TAF
RJOB 252305Z 2600/2706 12006KT 9999 FEW020 SCT035
RJOT 252305Z 2600/2706 06010KT 9999 FEW020 SCT040
       BECMG 2609/2611 12005KT
RJOA 252305Z 2600/2706 14005KT 9999 FEW025 SCT045

本日の天候は曇り、風は実測0m/sec、雲底が少し低いようですが、まずますのコンディションでした。
訓練生は慣熟訓練やTGL訓練、ライセンサーは慣熟訓練やサーマルを探しにいっていたようです。



解散    18:00

1番機  10:35離陸 撤収機  17:15着陸 

SF25C JA2330 ファルケ     10Flt.4h00min  
17E   JA2342 タイフーン    01Flt.0h55min
合計                    10Flt.4h55min

    << 戻る || ホームページ || 最新の掲示板へ